sensor_id;sensor_type;location;lat;lon;timestamp;pressure;altitude;pressure_sealevel;temperature;humidity
62248;BME280;48237;50.140;8.486;2022-09-27T00:01:08;97636.17;;;12.67;100.00
62248;BME280;48237;50.140;8.486;2022-09-27T00:03:36;97631.11;;;12.28;100.00
62248;BME280;48237;50.140;8.486;2022-09-27T00:06:06;97632.22;;;12.20;100.00
62248;BME280;48237;50.140;8.486;2022-09-27T00:08:35;97632.63;;;12.79;100.00
62248;BME280;48237;50.140;8.486;2022-09-27T00:11:03;97636.00;;;12.00;100.00
62248;BME280;48237;50.140;8.486;2022-09-27T00:13:32;97630.28;;;12.55;100.00
62248;BME280;48237;50.140;8.486;2022-09-27T00:16:01;97634.65;;;11.82;100.00
62248;BME280;48237;50.140;8.486;2022-09-27T00:18:30;97635.61;;;11.25;100.00
62248;BME280;48237;50.140;8.486;2022-09-27T00:21:04;97631.94;;;11.58;100.00
62248;BME280;48237;50.140;8.486;2022-09-27T00:23:31;97624.02;;;11.99;100.00
62248;BME280;48237;50.140;8.486;2022-09-27T00:25:59;97630.27;;;12.23;100.00
62248;BME280;48237;50.140;8.486;2022-09-27T00:28:27;97627.10;;;12.06;100.00
62248;BME280;48237;50.140;8.486;2022-09-27T00:30:54;97629.39;;;12.34;100.00
62248;BME280;48237;50.140;8.486;2022-09-27T00:33:21;97626.48;;;11.79;100.00
62248;BME280;48237;50.140;8.486;2022-09-27T00:35:48;97626.17;;;12.46;100.00
62248;BME280;48237;50.140;8.486;2022-09-27T00:38:16;97619.51;;;12.12;100.00
62248;BME280;48237;50.140;8.486;2022-09-27T00:40:44;97619.16;;;12.99;100.00
62248;BME280;48237;50.140;8.486;2022-09-27T00:43:16;97621.53;;;12.19;100.00
62248;BME280;48237;50.140;8.486;2022-09-27T00:45:47;97618.28;;;12.27;100.00
62248;BME280;48237;50.140;8.486;2022-09-27T00:48:19;97619.95;;;12.35;100.00
62248;BME280;48237;50.140;8.486;2022-09-27T00:50:51;97619.69;;;12.55;100.00
62248;BME280;48237;50.140;8.486;2022-09-27T00:53:26;97619.66;;;12.51;100.00
62248;BME280;48237;50.140;8.486;2022-09-27T00:55:58;97616.85;;;12.26;100.00
62248;BME280;48237;50.140;8.486;2022-09-27T00:58:29;97611.91;;;12.49;100.00
62248;BME280;48237;50.140;8.486;2022-09-27T01:00:59;97608.29;;;13.09;100.00
62248;BME280;48237;50.140;8.486;2022-09-27T01:03:34;97611.98;;;12.08;100.00
62248;BME280;48237;50.140;8.486;2022-09-27T01:06:06;97607.00;;;12.63;100.00
62248;BME280;48237;50.140;8.486;2022-09-27T01:08:34;97602.88;;;12.88;100.00
62248;BME280;48237;50.140;8.486;2022-09-27T01:11:18;97602.65;;;12.75;100.00
62248;BME280;48237;50.140;8.486;2022-09-27T01:14:03;97601.19;;;12.48;100.00
62248;BME280;48237;50.140;8.486;2022-09-27T01:16:40;97599.43;;;12.52;100.00
62248;BME280;48237;50.140;8.486;2022-09-27T01:19:29;97598.46;;;12.44;100.00
62248;BME280;48237;50.140;8.486;2022-09-27T01:22:04;97599.92;;;12.46;100.00
62248;BME280;48237;50.140;8.486;2022-09-27T01:24:51;97600.14;;;12.08;100.00
62248;BME280;48237;50.140;8.486;2022-09-27T01:27:51;97600.49;;;12.04;100.00
62248;BME280;48237;50.140;8.486;2022-09-27T01:30:23;97598.59;;;12.39;100.00
62248;BME280;48237;50.140;8.486;2022-09-27T01:33:09;97598.30;;;11.89;100.00
62248;BME280;48237;50.140;8.486;2022-09-27T01:35:49;97596.10;;;11.85;100.00
62248;BME280;48237;50.140;8.486;2022-09-27T01:38:27;97594.85;;;11.87;100.00
62248;BME280;48237;50.140;8.486;2022-09-27T01:41:02;97591.01;;;12.44;100.00
62248;BME280;48237;50.140;8.486;2022-09-27T01:43:35;97588.88;;;12.29;100.00
62248;BME280;48237;50.140;8.486;2022-09-27T01:46:07;97586.62;;;13.10;100.00
62248;BME280;48237;50.140;8.486;2022-09-27T01:48:41;97583.77;;;12.93;100.00
62248;BME280;48237;50.140;8.486;2022-09-27T01:51:13;97584.17;;;12.32;100.00
62248;BME280;48237;50.140;8.486;2022-09-27T01:53:43;97585.97;;;11.96;100.00
62248;BME280;48237;50.140;8.486;2022-09-27T01:56:17;97584.85;;;11.82;100.00
62248;BME280;48237;50.140;8.486;2022-09-27T01:58:52;97582.65;;;12.53;100.00
62248;BME280;48237;50.140;8.486;2022-09-27T02:01:24;97583.52;;;12.63;100.00
62248;BME280;48237;50.140;8.486;2022-09-27T02:03:53;97581.63;;;12.49;100.00
62248;BME280;48237;50.140;8.486;2022-09-27T02:06:26;97583.74;;;12.71;100.00
62248;BME280;48237;50.140;8.486;2022-09-27T02:08:58;97585.21;;;12.35;100.00
62248;BME280;48237;50.140;8.486;2022-09-27T02:11:32;97584.29;;;11.86;100.00
62248;BME280;48237;50.140;8.486;2022-09-27T02:14:10;97580.20;;;13.02;100.00
62248;BME280;48237;50.140;8.486;2022-09-27T02:16:46;97581.85;;;11.96;100.00
62248;BME280;48237;50.140;8.486;2022-09-27T02:19:23;97578.97;;;13.17;100.00
62248;BME280;48237;50.140;8.486;2022-09-27T02:21:58;97583.81;;;10.93;100.00
62248;BME280;48237;50.140;8.486;2022-09-27T02:24:34;97582.59;;;11.93;100.00
62248;BME280;48237;50.140;8.486;2022-09-27T02:27:08;97578.89;;;12.45;100.00
62248;BME280;48237;50.140;8.486;2022-09-27T02:29:43;97576.85;;;12.51;100.00
62248;BME280;48237;50.140;8.486;2022-09-27T02:32:13;97583.65;;;11.12;100.00
62248;BME280;48237;50.140;8.486;2022-09-27T02:34:40;97583.77;;;11.99;100.00
62248;BME280;48237;50.140;8.486;2022-09-27T02:37:09;97583.19;;;11.57;100.00
62248;BME280;48237;50.140;8.486;2022-09-27T02:39:37;97584.05;;;11.58;100.00
62248;BME280;48237;50.140;8.486;2022-09-27T02:42:04;97580.49;;;12.23;100.00
62248;BME280;48237;50.140;8.486;2022-09-27T02:44:33;97593.40;;;11.86;100.00
62248;BME280;48237;50.140;8.486;2022-09-27T02:47:18;97596.06;;;12.01;100.00
62248;BME280;48237;50.140;8.486;2022-09-27T02:49:59;97596.58;;;11.65;100.00
62248;BME280;48237;50.140;8.486;2022-09-27T02:52:38;97604.66;;;11.08;100.00
62248;BME280;48237;50.140;8.486;2022-09-27T02:55:15;97606.39;;;12.21;100.00
62248;BME280;48237;50.140;8.486;2022-09-27T02:57:55;97611.86;;;12.41;100.00
62248;BME280;48237;50.140;8.486;2022-09-27T03:00:30;97619.11;;;12.26;100.00
62248;BME280;48237;50.140;8.486;2022-09-27T03:03:06;97624.09;;;10.96;100.00
62248;BME280;48237;50.140;8.486;2022-09-27T03:05:40;97627.09;;;10.88;100.00
62248;BME280;48237;50.140;8.486;2022-09-27T03:08:09;97624.62;;;11.59;100.00
62248;BME280;48237;50.140;8.486;2022-09-27T03:10:37;97636.47;;;11.39;100.00
62248;BME280;48237;50.140;8.486;2022-09-27T03:13:04;97638.26;;;10.62;100.00
62248;BME280;48237;50.140;8.486;2022-09-27T03:15:38;97644.14;;;10.22;100.00
62248;BME280;48237;50.140;8.486;2022-09-27T03:18:06;97639.05;;;10.50;100.00
62248;BME280;48237;50.140;8.486;2022-09-27T03:20:33;97640.79;;;10.72;100.00
62248;BME280;48237;50.140;8.486;2022-09-27T03:23:00;97644.01;;;10.44;100.00
62248;BME280;48237;50.140;8.486;2022-09-27T03:25:27;97645.33;;;10.86;100.00
62248;BME280;48237;50.140;8.486;2022-09-27T03:27:54;97650.61;;;10.93;100.00
62248;BME280;48237;50.140;8.486;2022-09-27T03:30:21;97647.51;;;11.37;100.00
62248;BME280;48237;50.140;8.486;2022-09-27T03:32:48;97653.72;;;10.69;100.00
62248;BME280;48237;50.140;8.486;2022-09-27T03:35:15;97658.32;;;10.48;100.00
62248;BME280;48237;50.140;8.486;2022-09-27T03:37:42;97657.96;;;10.82;100.00
62248;BME280;48237;50.140;8.486;2022-09-27T03:40:10;97660.39;;;10.12;100.00
62248;BME280;48237;50.140;8.486;2022-09-27T03:42:37;97656.84;;;11.24;100.00
62248;BME280;48237;50.140;8.486;2022-09-27T03:45:04;97657.02;;;10.94;100.00
62248;BME280;48237;50.140;8.486;2022-09-27T03:47:31;97654.06;;;10.88;100.00
62248;BME280;48237;50.140;8.486;2022-09-27T03:49:58;97663.46;;;10.42;100.00
62248;BME280;48237;50.140;8.486;2022-09-27T03:52:26;97666.01;;;10.23;100.00
62248;BME280;48237;50.140;8.486;2022-09-27T03:54:54;97666.49;;;9.11;100.00
62248;BME280;48237;50.140;8.486;2022-09-27T03:57:20;97664.70;;;10.38;100.00
62248;BME280;48237;50.140;8.486;2022-09-27T03:59:47;97667.88;;;9.99;100.00
62248;BME280;48237;50.140;8.486;2022-09-27T04:02:15;97665.77;;;10.49;100.00
62248;BME280;48237;50.140;8.486;2022-09-27T04:04:42;97673.77;;;10.13;100.00
62248;BME280;48237;50.140;8.486;2022-09-27T04:07:09;97673.06;;;10.33;100.00
62248;BME280;48237;50.140;8.486;2022-09-27T04:09:36;97672.12;;;10.82;100.00
62248;BME280;48237;50.140;8.486;2022-09-27T04:12:04;97671.86;;;10.97;100.00
62248;BME280;48237;50.140;8.486;2022-09-27T04:14:31;97675.24;;;10.44;100.00
62248;BME280;48237;50.140;8.486;2022-09-27T04:16:58;97681.80;;;9.08;100.00
62248;BME280;48237;50.140;8.486;2022-09-27T04:19:30;97676.19;;;11.01;100.00
62248;BME280;48237;50.140;8.486;2022-09-27T04:21:57;97676.22;;;11.11;100.00
62248;BME280;48237;50.140;8.486;2022-09-27T04:24:24;97679.68;;;10.94;100.00
62248;BME280;48237;50.140;8.486;2022-09-27T04:26:51;97681.56;;;11.11;100.00
62248;BME280;48237;50.140;8.486;2022-09-27T04:29:18;97683.72;;;11.18;100.00
62248;BME280;48237;50.140;8.486;2022-09-27T04:31:45;97684.63;;;10.74;100.00
62248;BME280;48237;50.140;8.486;2022-09-27T04:34:12;97694.61;;;9.64;100.00
62248;BME280;48237;50.140;8.486;2022-09-27T04:36:39;97694.02;;;11.00;100.00
62248;BME280;48237;50.140;8.486;2022-09-27T04:39:12;97697.61;;;10.75;100.00
62248;BME280;48237;50.140;8.486;2022-09-27T04:41:39;97700.92;;;11.05;100.00
62248;BME280;48237;50.140;8.486;2022-09-27T04:44:06;97704.04;;;10.96;100.00
62248;BME280;48237;50.140;8.486;2022-09-27T04:46:33;97708.54;;;11.03;100.00
62248;BME280;48237;50.140;8.486;2022-09-27T04:49:01;97710.10;;;11.34;100.00
62248;BME280;48237;50.140;8.486;2022-09-27T04:51:28;97718.91;;;10.37;100.00
62248;BME280;48237;50.140;8.486;2022-09-27T04:53:56;97715.45;;;10.53;100.00
62248;BME280;48237;50.140;8.486;2022-09-27T04:56:23;97718.85;;;10.58;100.00
62248;BME280;48237;50.140;8.486;2022-09-27T04:58:50;97723.19;;;10.67;100.00
62248;BME280;48237;50.140;8.486;2022-09-27T05:01:17;97721.39;;;10.48;100.00
62248;BME280;48237;50.140;8.486;2022-09-27T05:03:44;97721.08;;;10.99;100.00
62248;BME280;48237;50.140;8.486;2022-09-27T05:06:11;97720.39;;;11.09;100.00
62248;BME280;48237;50.140;8.486;2022-09-27T05:08:38;97730.85;;;10.23;100.00
62248;BME280;48237;50.140;8.486;2022-09-27T05:11:05;97731.34;;;11.01;100.00
62248;BME280;48237;50.140;8.486;2022-09-27T05:13:32;97740.72;;;10.42;100.00
62248;BME280;48237;50.140;8.486;2022-09-27T05:16:02;97737.61;;;11.23;100.00
62248;BME280;48237;50.140;8.486;2022-09-27T05:18:29;97735.93;;;10.93;100.00
62248;BME280;48237;50.140;8.486;2022-09-27T05:20:56;97736.71;;;11.09;100.00
62248;BME280;48237;50.140;8.486;2022-09-27T05:23:23;97741.01;;;11.16;100.00
62248;BME280;48237;50.140;8.486;2022-09-27T05:25:50;97744.55;;;11.32;100.00
62248;BME280;48237;50.140;8.486;2022-09-27T05:28:17;97753.15;;;10.90;100.00
62248;BME280;48237;50.140;8.486;2022-09-27T05:30:44;97756.55;;;10.03;100.00
62248;BME280;48237;50.140;8.486;2022-09-27T05:33:11;97754.32;;;11.18;100.00
62248;BME280;48237;50.140;8.486;2022-09-27T05:35:38;97754.27;;;11.25;100.00
62248;BME280;48237;50.140;8.486;2022-09-27T05:38:05;97756.20;;;11.43;100.00
62248;BME280;48237;50.140;8.486;2022-09-27T05:40:32;97764.80;;;11.31;100.00
62248;BME280;48237;50.140;8.486;2022-09-27T05:42:59;97768.39;;;10.75;100.00
62248;BME280;48237;50.140;8.486;2022-09-27T05:45:26;97769.17;;;11.07;100.00
62248;BME280;48237;50.140;8.486;2022-09-27T05:47:54;97763.33;;;11.61;100.00
62248;BME280;48237;50.140;8.486;2022-09-27T05:50:22;97769.36;;;11.77;100.00
62248;BME280;48237;50.140;8.486;2022-09-27T05:52:50;97769.81;;;11.72;100.00
62248;BME280;48237;50.140;8.486;2022-09-27T05:55:17;97776.30;;;11.70;100.00
62248;BME280;48237;50.140;8.486;2022-09-27T05:57:54;97775.64;;;11.45;100.00
62248;BME280;48237;50.140;8.486;2022-09-27T06:00:21;97782.24;;;10.65;100.00
62248;BME280;48237;50.140;8.486;2022-09-27T06:02:52;97783.56;;;11.48;100.00
62248;BME280;48237;50.140;8.486;2022-09-27T06:05:19;97785.30;;;11.30;100.00
62248;BME280;48237;50.140;8.486;2022-09-27T06:07:46;97784.98;;;11.54;100.00
62248;BME280;48237;50.140;8.486;2022-09-27T06:10:13;97783.15;;;11.46;100.00
62248;BME280;48237;50.140;8.486;2022-09-27T06:12:40;97788.18;;;11.47;100.00
62248;BME280;48237;50.140;8.486;2022-09-27T06:15:07;97797.68;;;11.63;100.00
62248;BME280;48237;50.140;8.486;2022-09-27T06:17:35;97804.27;;;10.97;100.00
62248;BME280;48237;50.140;8.486;2022-09-27T06:20:03;97813.91;;;10.79;100.00
62248;BME280;48237;50.140;8.486;2022-09-27T06:22:30;97816.94;;;10.74;100.00
62248;BME280;48237;50.140;8.486;2022-09-27T06:24:58;97824.53;;;11.29;100.00
62248;BME280;48237;50.140;8.486;2022-09-27T06:27:24;97823.57;;;11.21;100.00
62248;BME280;48237;50.140;8.486;2022-09-27T06:29:51;97825.52;;;11.36;100.00
62248;BME280;48237;50.140;8.486;2022-09-27T06:32:18;97827.81;;;11.79;100.00
62248;BME280;48237;50.140;8.486;2022-09-27T06:34:45;97837.99;;;10.25;100.00
62248;BME280;48237;50.140;8.486;2022-09-27T06:37:12;97838.30;;;11.64;100.00
62248;BME280;48237;50.140;8.486;2022-09-27T06:39:39;97840.48;;;11.30;100.00
62248;BME280;48237;50.140;8.486;2022-09-27T06:42:06;97845.92;;;10.25;100.00
62248;BME280;48237;50.140;8.486;2022-09-27T06:44:33;97839.82;;;12.11;100.00
62248;BME280;48237;50.140;8.486;2022-09-27T06:47:00;97845.25;;;12.20;100.00
62248;BME280;48237;50.140;8.486;2022-09-27T06:49:27;97852.44;;;12.03;100.00
62248;BME280;48237;50.140;8.486;2022-09-27T06:51:54;97857.00;;;11.25;100.00
62248;BME280;48237;50.140;8.486;2022-09-27T06:54:21;97860.30;;;11.49;100.00
62248;BME280;48237;50.140;8.486;2022-09-27T06:56:48;97868.39;;;11.04;100.00
62248;BME280;48237;50.140;8.486;2022-09-27T06:59:15;97876.02;;;11.70;100.00
62248;BME280;48237;50.140;8.486;2022-09-27T07:01:43;97875.89;;;11.78;100.00
62248;BME280;48237;50.140;8.486;2022-09-27T07:04:11;97875.48;;;12.29;100.00
62248;BME280;48237;50.140;8.486;2022-09-27T07:06:38;97879.45;;;10.82;100.00
62248;BME280;48237;50.140;8.486;2022-09-27T07:09:05;97882.94;;;11.28;100.00
62248;BME280;48237;50.140;8.486;2022-09-27T07:11:34;97884.37;;;11.41;100.00
62248;BME280;48237;50.140;8.486;2022-09-27T07:14:01;97891.61;;;11.90;100.00
62248;BME280;48237;50.140;8.486;2022-09-27T07:16:28;97900.14;;;10.49;100.00
62248;BME280;48237;50.140;8.486;2022-09-27T07:18:55;97897.04;;;11.40;100.00
62248;BME280;48237;50.140;8.486;2022-09-27T07:21:22;97901.34;;;11.25;100.00
62248;BME280;48237;50.140;8.486;2022-09-27T07:23:49;97903.81;;;10.80;100.00
62248;BME280;48237;50.140;8.486;2022-09-27T07:26:16;97906.16;;;11.41;100.00
62248;BME280;48237;50.140;8.486;2022-09-27T07:28:43;97903.72;;;11.66;100.00
62248;BME280;48237;50.140;8.486;2022-09-27T07:31:10;97907.58;;;11.42;100.00
62248;BME280;48237;50.140;8.486;2022-09-27T07:33:38;97907.71;;;11.17;100.00
62248;BME280;48237;50.140;8.486;2022-09-27T07:36:06;97911.50;;;11.79;100.00
62248;BME280;48237;50.140;8.486;2022-09-27T07:38:33;97916.46;;;11.90;100.00
62248;BME280;48237;50.140;8.486;2022-09-27T07:41:05;97923.98;;;11.20;100.00
62248;BME280;48237;50.140;8.486;2022-09-27T07:43:32;97924.53;;;12.00;100.00
62248;BME280;48237;50.140;8.486;2022-09-27T07:45:58;97925.77;;;12.20;100.00
62248;BME280;48237;50.140;8.486;2022-09-27T07:48:25;97928.04;;;11.58;100.00
62248;BME280;48237;50.140;8.486;2022-09-27T07:50:53;97921.73;;;11.93;100.00
62248;BME280;48237;50.140;8.486;2022-09-27T07:53:19;97921.53;;;12.13;100.00
62248;BME280;48237;50.140;8.486;2022-09-27T07:55:49;97923.08;;;12.17;100.00
62248;BME280;48237;50.140;8.486;2022-09-27T07:58:16;97929.24;;;12.34;100.00
62248;BME280;48237;50.140;8.486;2022-09-27T08:00:43;97926.99;;;13.09;100.00
62248;BME280;48237;50.140;8.486;2022-09-27T08:03:12;97929.88;;;12.87;98.30
62248;BME280;48237;50.140;8.486;2022-09-27T08:05:40;97928.49;;;13.07;98.35
62248;BME280;48237;50.140;8.486;2022-09-27T08:08:12;97928.35;;;13.29;98.99
62248;BME280;48237;50.140;8.486;2022-09-27T08:10:42;97931.59;;;13.15;100.00
62248;BME280;48237;50.140;8.486;2022-09-27T08:13:09;97937.98;;;12.35;85.36
62248;BME280;48237;50.140;8.486;2022-09-27T08:15:37;97937.35;;;13.10;90.52
62248;BME280;48237;50.140;8.486;2022-09-27T08:18:06;97939.13;;;12.15;92.03
62248;BME280;48237;50.140;8.486;2022-09-27T08:20:33;97944.07;;;13.53;83.90
62248;BME280;48237;50.140;8.486;2022-09-27T08:23:00;97949.71;;;12.00;85.62
62248;BME280;48237;50.140;8.486;2022-09-27T08:25:27;97950.58;;;12.93;87.52
62248;BME280;48237;50.140;8.486;2022-09-27T08:27:55;97952.62;;;12.52;86.52
62248;BME280;48237;50.140;8.486;2022-09-27T08:30:22;97961.92;;;11.82;94.90
62248;BME280;48237;50.140;8.486;2022-09-27T08:32:49;97964.45;;;12.11;83.43
62248;BME280;48237;50.140;8.486;2022-09-27T08:35:20;97964.56;;;12.95;82.65
62248;BME280;48237;50.140;8.486;2022-09-27T08:37:52;97970.70;;;12.10;81.34
62248;BME280;48237;50.140;8.486;2022-09-27T08:40:20;97968.34;;;12.68;82.91
62248;BME280;48237;50.140;8.486;2022-09-27T08:42:57;97971.63;;;12.43;88.84
62248;BME280;48237;50.140;8.486;2022-09-27T08:45:30;97975.44;;;12.14;100.00
62248;BME280;48237;50.140;8.486;2022-09-27T08:48:00;97972.05;;;13.05;90.16
62248;BME280;48237;50.140;8.486;2022-09-27T08:50:31;97973.32;;;13.93;88.28
62248;BME280;48237;50.140;8.486;2022-09-27T08:53:05;97972.09;;;12.67;85.75
62248;BME280;48237;50.140;8.486;2022-09-27T08:55:36;97971.47;;;13.29;85.03
62248;BME280;48237;50.140;8.486;2022-09-27T08:58:13;97974.33;;;14.16;85.88
62248;BME280;48237;50.140;8.486;2022-09-27T09:00:42;97977.91;;;12.88;90.76
62248;BME280;48237;50.140;8.486;2022-09-27T09:03:17;97978.05;;;13.89;79.04
62248;BME280;48237;50.140;8.486;2022-09-27T09:05:54;97979.04;;;12.42;90.47
62248;BME280;48237;50.140;8.486;2022-09-27T09:08:37;97979.45;;;13.33;92.03
62248;BME280;48237;50.140;8.486;2022-09-27T09:11:12;97977.36;;;14.15;81.71
62248;BME280;48237;50.140;8.486;2022-09-27T09:13:55;97976.61;;;12.67;90.31
62248;BME280;48237;50.140;8.486;2022-09-27T09:16:37;97972.14;;;13.88;82.88
62248;BME280;48237;50.140;8.486;2022-09-27T09:19:17;97974.43;;;13.09;98.94
62248;BME280;48237;50.140;8.486;2022-09-27T09:21:58;97973.40;;;13.64;88.79
62248;BME280;48237;50.140;8.486;2022-09-27T09:24:36;97970.76;;;12.51;96.75
62248;BME280;48237;50.140;8.486;2022-09-27T09:27:14;97963.42;;;12.57;98.18
62248;BME280;48237;50.140;8.486;2022-09-27T09:29:59;97964.76;;;13.98;85.02
62248;BME280;48237;50.140;8.486;2022-09-27T09:32:37;97967.52;;;14.37;78.16
62248;BME280;48237;50.140;8.486;2022-09-27T09:35:12;97967.28;;;13.62;77.61
62248;BME280;48237;50.140;8.486;2022-09-27T09:37:46;97972.02;;;13.05;88.44
62248;BME280;48237;50.140;8.486;2022-09-27T09:40:19;97970.46;;;13.36;78.78
62248;BME280;48237;50.140;8.486;2022-09-27T09:42:51;97962.67;;;13.67;76.90
62248;BME280;48237;50.140;8.486;2022-09-27T09:45:24;97962.41;;;13.29;82.21
62248;BME280;48237;50.140;8.486;2022-09-27T09:47:58;97962.50;;;13.67;78.89
62248;BME280;48237;50.140;8.486;2022-09-27T09:50:33;97966.88;;;12.83;85.02
62248;BME280;48237;50.140;8.486;2022-09-27T09:53:08;97966.40;;;13.31;84.45
62248;BME280;48237;50.140;8.486;2022-09-27T09:55:38;97963.68;;;13.50;89.13
62248;BME280;48237;50.140;8.486;2022-09-27T09:58:22;97966.82;;;13.36;93.24
62248;BME280;48237;50.140;8.486;2022-09-27T10:00:54;97972.85;;;12.43;92.14
62248;BME280;48237;50.140;8.486;2022-09-27T10:03:22;97967.46;;;13.71;86.07
62248;BME280;48237;50.140;8.486;2022-09-27T10:05:49;97972.05;;;13.39;87.80
62248;BME280;48237;50.140;8.486;2022-09-27T10:08:18;97967.20;;;13.95;79.96
62248;BME280;48237;50.140;8.486;2022-09-27T10:10:46;97966.68;;;12.92;88.99
62248;BME280;48237;50.140;8.486;2022-09-27T10:13:16;97963.02;;;13.65;84.60
62248;BME280;48237;50.140;8.486;2022-09-27T10:15:49;97963.55;;;14.00;86.40
62248;BME280;48237;50.140;8.486;2022-09-27T10:18:19;97956.63;;;14.06;87.05
62248;BME280;48237;50.140;8.486;2022-09-27T10:20:50;97955.17;;;14.18;75.58
62248;BME280;48237;50.140;8.486;2022-09-27T10:23:20;97950.25;;;13.46;82.22
62248;BME280;48237;50.140;8.486;2022-09-27T10:25:50;97948.09;;;12.81;90.04
62248;BME280;48237;50.140;8.486;2022-09-27T10:28:35;97947.66;;;14.17;77.57
62248;BME280;48237;50.140;8.486;2022-09-27T10:31:04;97944.82;;;14.67;75.04
62248;BME280;48237;50.140;8.486;2022-09-27T10:33:34;97945.43;;;14.91;72.78
62248;BME280;48237;50.140;8.486;2022-09-27T10:36:03;97951.19;;;14.53;73.37
62248;BME280;48237;50.140;8.486;2022-09-27T10:38:32;97948.06;;;14.30;77.19
62248;BME280;48237;50.140;8.486;2022-09-27T10:41:16;97945.09;;;13.75;79.83
62248;BME280;48237;50.140;8.486;2022-09-27T10:43:44;97941.01;;;13.73;82.17
62248;BME280;48237;50.140;8.486;2022-09-27T10:46:18;97940.19;;;13.73;79.30
62248;BME280;48237;50.140;8.486;2022-09-27T10:48:49;97932.80;;;14.35;78.43
62248;BME280;48237;50.140;8.486;2022-09-27T10:51:33;97934.00;;;13.68;79.55
62248;BME280;48237;50.140;8.486;2022-09-27T10:54:01;97930.39;;;13.43;90.15
62248;BME280;48237;50.140;8.486;2022-09-27T10:56:30;97921.82;;;13.85;79.14
62248;BME280;48237;50.140;8.486;2022-09-27T10:58:58;97923.60;;;13.60;78.35
62248;BME280;48237;50.140;8.486;2022-09-27T11:01:36;97920.99;;;13.93;79.16
62248;BME280;48237;50.140;8.486;2022-09-27T11:04:05;97926.91;;;13.26;75.49
62248;BME280;48237;50.140;8.486;2022-09-27T11:06:33;97925.96;;;13.20;72.51
62248;BME280;48237;50.140;8.486;2022-09-27T11:09:15;97923.10;;;13.75;74.26
62248;BME280;48237;50.140;8.486;2022-09-27T11:11:42;97925.16;;;12.58;83.01
62248;BME280;48237;50.140;8.486;2022-09-27T11:14:19;97920.75;;;13.82;73.34
62248;BME280;48237;50.140;8.486;2022-09-27T11:16:55;97921.15;;;13.84;77.82
62248;BME280;48237;50.140;8.486;2022-09-27T11:19:42;97916.31;;;12.33;82.96
62248;BME280;48237;50.140;8.486;2022-09-27T11:22:25;97918.88;;;13.92;71.81
62248;BME280;48237;50.140;8.486;2022-09-27T11:25:06;97914.95;;;13.71;70.71
62248;BME280;48237;50.140;8.486;2022-09-27T11:27:53;97918.10;;;13.40;86.69
62248;BME280;48237;50.140;8.486;2022-09-27T11:30:24;97913.95;;;14.03;70.90
62248;BME280;48237;50.140;8.486;2022-09-27T11:33:06;97913.87;;;14.15;70.65
62248;BME280;48237;50.140;8.486;2022-09-27T11:35:49;97918.92;;;13.34;76.38
62248;BME280;48237;50.140;8.486;2022-09-27T11:38:24;97911.36;;;13.99;68.02
62248;BME280;48237;50.140;8.486;2022-09-27T11:41:07;97907.79;;;13.81;64.88
62248;BME280;48237;50.140;8.486;2022-09-27T11:43:46;97910.91;;;13.35;69.13
62248;BME280;48237;50.140;8.486;2022-09-27T11:46:23;97906.06;;;13.28;68.90
62248;BME280;48237;50.140;8.486;2022-09-27T11:49:04;97903.96;;;13.37;64.88
62248;BME280;48237;50.140;8.486;2022-09-27T11:51:52;97900.39;;;14.59;68.39
62248;BME280;48237;50.140;8.486;2022-09-27T11:54:32;97896.64;;;14.33;68.25
62248;BME280;48237;50.140;8.486;2022-09-27T11:57:10;97898.50;;;14.04;66.63
62248;BME280;48237;50.140;8.486;2022-09-27T11:59:58;97895.34;;;14.55;69.26
62248;BME280;48237;50.140;8.486;2022-09-27T12:02:44;97894.05;;;13.82;70.86
62248;BME280;48237;50.140;8.486;2022-09-27T12:05:24;97892.07;;;14.55;65.48
62248;BME280;48237;50.140;8.486;2022-09-27T12:08:06;97887.92;;;14.88;66.26
62248;BME280;48237;50.140;8.486;2022-09-27T12:10:39;97886.63;;;14.03;70.31
62248;BME280;48237;50.140;8.486;2022-09-27T12:13:12;97883.16;;;14.30;67.85
62248;BME280;48237;50.140;8.486;2022-09-27T12:15:43;97886.53;;;14.71;63.40
62248;BME280;48237;50.140;8.486;2022-09-27T12:18:21;97891.51;;;14.48;64.04
62248;BME280;48237;50.140;8.486;2022-09-27T12:20:50;97891.02;;;14.57;68.10
62248;BME280;48237;50.140;8.486;2022-09-27T12:23:21;97887.94;;;14.73;65.37
62248;BME280;48237;50.140;8.486;2022-09-27T12:25:57;97889.92;;;14.32;72.09
62248;BME280;48237;50.140;8.486;2022-09-27T12:28:34;97887.20;;;14.52;73.71
62248;BME280;48237;50.140;8.486;2022-09-27T12:31:06;97883.79;;;14.20;70.29
62248;BME280;48237;50.140;8.486;2022-09-27T12:33:41;97883.50;;;13.94;78.35
62248;BME280;48237;50.140;8.486;2022-09-27T12:36:14;97887.20;;;15.39;61.55
62248;BME280;48237;50.140;8.486;2022-09-27T12:38:45;97886.37;;;14.85;64.48
62248;BME280;48237;50.140;8.486;2022-09-27T12:41:18;97885.82;;;14.49;69.68
62248;BME280;48237;50.140;8.486;2022-09-27T12:43:49;97885.09;;;14.10;70.66
62248;BME280;48237;50.140;8.486;2022-09-27T12:46:22;97888.75;;;14.70;65.04
62248;BME280;48237;50.140;8.486;2022-09-27T12:49:01;97889.84;;;15.01;63.06
62248;BME280;48237;50.140;8.486;2022-09-27T12:51:34;97891.78;;;13.80;77.00
62248;BME280;48237;50.140;8.486;2022-09-27T12:54:21;97887.07;;;14.11;70.63
62248;BME280;48237;50.140;8.486;2022-09-27T12:56:55;97887.14;;;14.27;68.24
62248;BME280;48237;50.140;8.486;2022-09-27T12:59:39;97881.17;;;14.84;69.83
62248;BME280;48237;50.140;8.486;2022-09-27T13:02:28;97882.80;;;14.19;74.68
62248;BME280;48237;50.140;8.486;2022-09-27T13:05:21;97882.89;;;14.10;68.26
62248;BME280;48237;50.140;8.486;2022-09-27T13:08:03;97879.12;;;14.39;65.76
62248;BME280;48237;50.140;8.486;2022-09-27T13:10:39;97878.01;;;15.03;65.53
62248;BME280;48237;50.140;8.486;2022-09-27T13:13:11;97878.87;;;14.45;66.72
62248;BME280;48237;50.140;8.486;2022-09-27T13:15:43;97877.47;;;14.04;76.03
62248;BME280;48237;50.140;8.486;2022-09-27T13:18:29;97877.03;;;13.43;69.51